Time;durP1;ratioP1;P1;durP2;ratioP2;P2;SDS_P1;SDS_P2;PMS_P1;PMS_P2;Temp;Humidity;BMP_temperature;BMP_pressure;BME280_temperature;BME280_humidity;BME280_pressure;Samples;Min_cycle;Max_cycle;Signal;HPM_P1;HPM_P2
2021/06/11 00:00:38;;;;;;;10.35;8.77;;;19.20;80.40;;;;;;5037483;28;20099;-36
2021/06/11 00:03:04;;;;;;;9.07;8.18;;;19.10;80.50;;;;;;5036744;28;20029;-36
2021/06/11 00:05:30;;;;;;;8.65;7.30;;;19.10;80.50;;;;;;5037365;28;20036;-36
2021/06/11 00:07:56;;;;;;;9.93;8.73;;;19.10;80.60;;;;;;5052322;28;20033;-36
2021/06/11 00:10:22;;;;;;;9.63;8.57;;;19.20;80.60;;;;;;5037402;28;20033;-36
2021/06/11 00:12:47;;;;;;;10.00;7.90;;;19.10;80.60;;;;;;5036857;28;20041;-36
2021/06/11 00:15:13;;;;;;;13.50;8.43;;;19.10;80.70;;;;;;5036719;28;20026;-36
2021/06/11 00:17:39;;;;;;;10.23;8.38;;;19.10;80.80;;;;;;5036680;28;20046;-36
2021/06/11 00:20:06;;;;;;;9.57;8.50;;;19.10;80.90;;;;;;5037104;28;20025;-37
2021/06/11 00:22:32;;;;;;;10.32;8.20;;;19.10;80.90;;;;;;5036476;28;20050;-36
2021/06/11 00:24:58;;;;;;;8.93;8.02;;;19.10;80.90;;;;;;5037143;28;20029;-37
2021/06/11 00:27:23;;;;;;;9.63;7.93;;;19.10;80.90;;;;;;5036885;28;20321;-36
2021/06/11 00:29:49;;;;;;;10.15;8.48;;;19.10;81.00;;;;;;5036812;28;20317;-37
2021/06/11 00:32:15;;;;;;;11.63;9.07;;;19.10;81.10;;;;;;5036754;28;20057;-36
2021/06/11 00:34:40;;;;;;;9.13;7.93;;;19.20;81.20;;;;;;5036974;28;20101;-36
2021/06/11 00:37:07;;;;;;;13.10;8.02;;;19.20;81.10;;;;;;5036458;28;20119;-36
2021/06/11 00:39:33;;;;;;;9.48;7.95;;;19.20;81.10;;;;;;5036554;28;20512;-37
2021/06/11 00:42:01;;;;;;;10.20;8.02;;;19.20;81.10;;;;;;5036699;28;20033;-36
2021/06/11 00:44:27;;;;;;;10.35;9.02;;;19.20;81.10;;;;;;5036382;28;20440;-36
2021/06/11 00:46:53;;;;;;;11.55;9.75;;;19.10;81.10;;;;;;5036470;28;20045;-36
2021/06/11 00:49:19;;;;;;;12.52;9.40;;;19.20;81.80;;;;;;5036830;28;20021;-37
2021/06/11 00:51:45;;;;;;;10.65;9.02;;;19.20;81.30;;;;;;5036192;28;20045;-36
2021/06/11 00:54:12;;;;;;;11.50;8.82;;;19.10;81.20;;;;;;5036256;28;20071;-37
2021/06/11 00:56:38;;;;;;;13.07;9.57;;;19.10;81.30;;;;;;5036275;28;20037;-37
2021/06/11 00:59:04;;;;;;;11.07;9.30;;;19.10;81.30;;;;;;5036318;28;20025;-37
2021/06/11 01:01:29;;;;;;;9.95;8.55;;;19.10;81.40;;;;;;5035872;28;20096;-36
2021/06/11 01:03:55;;;;;;;9.93;8.63;;;19.10;81.40;;;;;;5036451;28;20059;-36
2021/06/11 01:06:21;;;;;;;10.50;8.73;;;19.10;82.00;;;;;;5035878;28;20033;-36
2021/06/11 01:08:48;;;;;;;13.48;9.35;;;19.10;81.60;;;;;;5035965;28;20112;-37
2021/06/11 01:11:14;;;;;;;9.50;8.40;;;19.10;81.80;;;;;;5036122;28;20045;-36
2021/06/11 01:13:41;;;;;;;14.05;8.38;;;19.10;81.70;;;;;;5035668;28;20022;-36
2021/06/11 01:16:07;;;;;;;9.70;8.27;;;19.10;81.80;;;;;;5036086;28;20039;-36
2021/06/11 01:18:32;;;;;;;10.18;8.93;;;19.10;82.00;;;;;;5035597;28;20132;-36
2021/06/11 01:20:58;;;;;;;12.40;9.07;;;19.10;82.00;;;;;;5035863;28;20103;-36
2021/06/11 01:23:49;;;;;;;15.63;11.77;;;19.00;82.10;;;;;;5035446;28;20405;-36
2021/06/11 01:26:25;;;;;;;;;;;19.00;82.00;;;;;;5035889;28;20424;-36
2021/06/11 01:28:54;;;;;;;12.55;9.85;;;19.00;81.40;;;;;;5035572;28;19913;-36
2021/06/11 01:31:20;;;;;;;12.27;10.45;;;18.90;82.10;;;;;;5035673;28;20119;-36
2021/06/11 01:33:55;;;;;;;18.27;10.95;;;18.90;82.30;;;;;;5035908;28;20022;-36
2021/06/11 01:36:26;;;;;;;14.45;11.77;;;18.90;82.60;;;;;;5035301;28;20057;-36
2021/06/11 01:38:55;;;;;;;11.73;10.27;;;18.90;82.70;;;;;;5051165;28;20041;-36
2021/06/11 01:41:22;;;;;;;14.02;9.88;;;18.90;82.60;;;;;;5035366;28;20030;-36
2021/06/11 01:43:52;;;;;;;12.80;10.00;;;18.90;82.60;;;;;;5036142;28;20029;-36
2021/06/11 01:46:22;;;;;;;11.05;9.77;;;18.90;82.60;;;;;;5035607;28;20029;-36
2021/06/11 01:48:49;;;;;;;12.93;10.02;;;18.90;82.60;;;;;;5035281;28;20052;-36
2021/06/11 01:51:16;;;;;;;17.38;11.30;;;18.90;82.60;;;;;;5035523;28;20061;-36
2021/06/11 01:53:43;;;;;;;11.13;8.85;;;18.90;82.80;;;;;;5035768;28;20101;-36
2021/06/11 01:56:12;;;;;;;14.80;9.68;;;18.90;82.70;;;;;;5035683;28;20115;-36
2021/06/11 01:58:40;;;;;;;10.73;9.52;;;18.90;82.70;;;;;;5035724;28;20045;-36
2021/06/11 02:01:06;;;;;;;13.40;11.13;;;18.90;82.80;;;;;;5035188;28;20044;-36
2021/06/11 02:03:32;;;;;;;14.18;9.77;;;18.80;82.80;;;;;;5034926;28;20030;-36
2021/06/11 02:05:59;;;;;;;13.05;10.05;;;18.90;82.90;;;;;;5035711;28;20038;-36
2021/06/11 02:08:25;;;;;;;12.57;9.02;;;18.80;82.90;;;;;;5034995;28;20029;-36
2021/06/11 02:10:52;;;;;;;13.23;10.77;;;18.80;82.80;;;;;;5035379;28;20033;-37
2021/06/11 02:13:18;;;;;;;12.13;10.63;;;18.90;83.00;;;;;;5035175;28;20033;-37
2021/06/11 02:15:44;;;;;;;13.30;10.45;;;18.80;82.90;;;;;;5035436;28;20317;-36
2021/06/11 02:18:12;;;;;;;15.27;9.32;;;18.80;83.00;;;;;;5034687;28;20045;-36
2021/06/11 02:20:38;;;;;;;10.40;9.10;;;18.80;83.00;;;;;;5035494;28;20316;-36
2021/06/11 02:23:05;;;;;;;10.63;9.05;;;18.80;83.10;;;;;;5034842;28;20465;-36
2021/06/11 02:25:30;;;;;;;12.52;10.15;;;18.80;83.20;;;;;;5035458;28;20109;-37
2021/06/11 02:27:57;;;;;;;11.38;9.85;;;18.80;83.40;;;;;;5035035;28;20116;-37
2021/06/11 02:30:22;;;;;;;13.63;10.32;;;18.90;83.50;;;;;;5035237;28;20026;-36
2021/06/11 02:32:49;;;;;;;11.15;9.30;;;18.90;83.50;;;;;;5034977;28;20479;-36
2021/06/11 02:35:21;;;;;;;14.85;10.27;;;18.90;83.40;;;;;;5035034;28;20026;-36
2021/06/11 02:37:48;;;;;;;14.20;10.90;;;18.90;83.50;;;;;;5034678;28;20087;-36
2021/06/11 02:40:14;;;;;;;14.55;10.95;;;18.90;83.40;;;;;;5038275;28;20037;-37
2021/06/11 02:42:44;;;;;;;12.80;11.07;;;18.90;83.60;;;;;;5038476;28;20487;-36
2021/06/11 02:45:17;;;;;;;14.38;11.20;;;18.90;83.70;;;;;;5038586;28;20257;-36
2021/06/11 02:47:52;;;;;;;12.90;11.07;;;18.90;83.80;;;;;;5038665;28;20128;-36
2021/06/11 02:50:28;;;;;;;14.02;10.90;;;18.90;83.90;;;;;;5038825;28;20049;-37
2021/06/11 02:53:00;;;;;;;13.02;10.40;;;18.90;84.00;;;;;;5038400;28;20029;-36
2021/06/11 02:55:27;;;;;;;15.40;10.73;;;18.90;84.30;;;;;;5038903;28;20021;-36
2021/06/11 02:58:19;;;;;;;12.68;10.88;;;18.90;84.40;;;;;;5038235;28;20082;-36
2021/06/11 03:00:47;;;;;;;12.70;11.15;;;18.90;84.20;;;;;;5038325;28;20100;-36
2021/06/11 03:03:23;;;;;;;12.23;10.02;;;18.80;84.50;;;;;;5038349;28;20048;-36
2021/06/11 03:05:54;;;;;;;12.85;10.65;;;18.90;84.50;;;;;;5038427;28;20116;-36
2021/06/11 03:08:24;;;;;;;13.95;11.32;;;18.90;84.50;;;;;;5037910;28;20124;-36
2021/06/11 03:10:52;;;;;;;;;;;18.90;84.60;;;;;;5039315;28;20053;-36
2021/06/11 03:13:20;;;;;;;13.93;11.98;;;18.90;84.00;;;;;;5037767;28;19913;-36
2021/06/11 03:15:46;;;;;;;14.63;11.82;;;18.80;84.60;;;;;;5038488;28;20041;-36
2021/06/11 03:18:41;;;;;;;16.85;12.05;;;18.90;84.90;;;;;;5053224;28;20122;-36
2021/06/11 03:21:21;;;;;;;12.95;10.85;;;18.90;84.90;;;;;;5037512;28;20046;-36
2021/06/11 03:23:49;;;;;;;19.25;14.50;;;18.90;85.00;;;;;;5038078;28;20032;-36
2021/06/11 03:26:22;;;;;;;15.95;13.02;;;18.90;85.20;;;;;;5038042;28;20422;-36
2021/06/11 03:28:52;;;;;;;18.70;13.10;;;18.90;85.20;;;;;;5037765;28;20382;-36
2021/06/11 03:31:36;;;;;;;19.10;12.30;;;18.90;85.40;;;;;;5037954;28;20402;-36
2021/06/11 03:34:04;;;;;;;17.67;14.75;;;18.90;85.10;;;;;;5038281;28;20034;-37
2021/06/11 03:36:40;;;;;;;18.52;13.15;;;18.90;85.60;;;;;;5037770;28;20037;-38
2021/06/11 03:39:10;;;;;;;16.35;14.25;;;18.90;85.50;;;;;;5037694;28;20030;-37
2021/06/11 03:41:37;;;;;;;19.00;14.23;;;18.80;85.50;;;;;;5037310;28;20049;-37
2021/06/11 03:44:07;;;;;;;18.77;13.40;;;18.80;85.80;;;;;;5037667;28;20141;-36
2021/06/11 03:46:34;;;;;;;14.48;11.30;;;18.80;85.80;;;;;;5037603;28;20034;-36
2021/06/11 03:49:01;;;;;;;17.65;12.13;;;18.90;86.00;;;;;;5037303;28;20036;-37
2021/06/11 03:51:28;;;;;;;12.88;10.70;;;18.90;85.90;;;;;;5037329;28;20041;-36
2021/06/11 03:53:56;;;;;;;14.63;12.05;;;18.90;85.80;;;;;;5037816;28;20056;-36
2021/06/11 03:56:25;;;;;;;13.00;10.75;;;18.90;85.80;;;;;;5037407;28;20075;-36
2021/06/11 03:58:52;;;;;;;13.65;11.93;;;18.90;85.80;;;;;;5037312;28;20033;-37
2021/06/11 04:01:24;;;;;;;16.85;10.85;;;18.90;85.70;;;;;;5037315;28;20036;-36
2021/06/11 04:03:51;;;;;;;13.93;10.63;;;18.90;85.80;;;;;;5037462;28;20298;-36
2021/06/11 04:06:20;;;;;;;15.95;11.00;;;18.90;85.70;;;;;;5037137;28;20056;-36
2021/06/11 04:08:49;;;;;;;14.87;10.60;;;18.90;85.90;;;;;;5037249;28;20049;-36
2021/06/11 04:11:25;;;;;;;14.00;11.75;;;18.90;85.80;;;;;;5037306;28;20036;-36
2021/06/11 04:13:54;;;;;;;12.30;10.48;;;19.00;86.10;;;;;;5037431;28;20320;-36
2021/06/11 04:16:38;;;;;;;17.45;13.27;;;19.00;86.00;;;;;;5037080;28;20168;-36
2021/06/11 04:19:09;;;;;;;11.60;10.40;;;19.00;85.80;;;;;;5036656;28;20052;-36
2021/06/11 04:21:35;;;;;;;12.52;10.52;;;18.90;86.00;;;;;;5036469;28;20045;-36
2021/06/11 04:24:05;;;;;;;12.70;10.18;;;19.00;86.10;;;;;;5037127;28;20025;-36
2021/06/11 04:26:34;;;;;;;11.82;9.95;;;19.00;86.00;;;;;;5036652;28;20515;-37
2021/06/11 04:29:02;;;;;;;15.27;12.60;;;19.00;86.20;;;;;;5036938;28;20117;-36
2021/06/11 04:31:29;;;;;;;20.02;11.35;;;19.00;86.40;;;;;;5036332;28;20026;-36
2021/06/11 04:33:55;;;;;;;18.05;11.23;;;19.00;86.40;;;;;;5036991;28;20097;-36
2021/06/11 04:36:21;;;;;;;13.98;10.35;;;19.00;86.40;;;;;;5036666;28;20033;-36
2021/06/11 04:38:55;;;;;;;13.38;11.95;;;19.00;86.50;;;;;;5036443;28;20034;-36
2021/06/11 04:41:23;;;;;;;11.93;10.63;;;19.00;86.60;;;;;;5036342;28;20291;-36
2021/06/11 04:43:49;;;;;;;13.82;12.13;;;19.10;86.80;;;;;;5036705;28;20046;-36
2021/06/11 04:46:14;;;;;;;12.38;10.88;;;19.10;86.80;;;;;;5036262;28;20184;-36
2021/06/11 04:48:40;;;;;;;17.13;13.82;;;19.10;86.70;;;;;;5035997;28;20025;-36
2021/06/11 04:51:05;;;;;;;13.18;10.98;;;19.10;87.00;;;;;;5036488;28;20030;-36
2021/06/11 04:53:31;;;;;;;13.65;11.15;;;19.20;87.00;;;;;;5036067;28;20061;-37
2021/06/11 04:55:57;;;;;;;13.32;10.98;;;19.20;87.10;;;;;;5036237;28;20034;-36
2021/06/11 04:58:23;;;;;;;15.23;12.65;;;19.20;87.00;;;;;;5035958;28;20078;-36
2021/06/11 05:00:49;;;;;;;14.32;11.90;;;19.20;86.90;;;;;;5035448;28;20418;-36
2021/06/11 05:03:14;;;;;;;16.15;12.20;;;19.20;86.60;;;;;;5035305;28;20032;-36
2021/06/11 05:05:40;;;;;;;12.55;11.13;;;19.20;86.50;;;;;;5036009;28;20037;-36
2021/06/11 05:08:05;;;;;;;13.20;11.38;;;19.20;86.70;;;;;;5035344;28;20040;-36
2021/06/11 05:10:31;;;;;;;13.80;12.27;;;19.20;86.70;;;;;;5036331;28;20026;-36
2021/06/11 05:12:57;;;;;;;16.55;14.45;;;19.20;87.00;;;;;;5051033;28;20029;-36
2021/06/11 05:15:22;;;;;;;13.57;11.60;;;19.20;87.20;;;;;;5035895;28;20471;-36
2021/06/11 05:17:48;;;;;;;20.58;14.50;;;19.20;86.90;;;;;;5035624;28;20446;-36
2021/06/11 05:20:14;;;;;;;15.18;12.00;;;19.20;87.20;;;;;;5035605;28;20030;-36
2021/06/11 05:22:40;;;;;;;14.43;12.15;;;19.20;86.90;;;;;;5035418;28;20030;-37
2021/06/11 05:25:06;;;;;;;12.80;10.50;;;19.20;87.00;;;;;;5035771;28;20372;-36
2021/06/11 05:27:32;;;;;;;13.68;11.48;;;19.20;86.80;;;;;;5035746;28;20068;-36
2021/06/11 05:29:57;;;;;;;11.48;9.88;;;19.20;87.00;;;;;;5035601;28;20052;-36
2021/06/11 05:32:23;;;;;;;12.50;10.23;;;19.20;86.90;;;;;;5035693;28;20091;-36
2021/06/11 05:34:48;;;;;;;12.30;10.55;;;19.20;87.30;;;;;;5035575;28;20395;-36
2021/06/11 05:37:14;;;;;;;14.48;9.90;;;19.20;87.20;;;;;;5035485;28;20039;-36
2021/06/11 05:39:40;;;;;;;9.23;8.13;;;19.20;87.40;;;;;;5035541;28;20029;-36
2021/06/11 05:42:06;;;;;;;9.95;7.10;;;19.30;87.30;;;;;;5035498;28;20025;-36
2021/06/11 05:44:31;;;;;;;8.32;6.97;;;19.30;87.00;;;;;;5035323;28;20440;-37
2021/06/11 05:46:58;;;;;;;8.00;6.75;;;19.30;86.90;;;;;;5034234;28;20034;-37
2021/06/11 05:49:24;;;;;;;9.10;6.78;;;19.30;86.80;;;;;;5035466;28;20044;-37
2021/06/11 05:51:49;;;;;;;7.13;6.15;;;19.30;86.80;;;;;;5035254;28;20034;-36
2021/06/11 05:54:15;;;;;;;8.40;7.18;;;19.30;86.70;;;;;;5035724;28;20083;-36
2021/06/11 05:56:40;;;;;;;10.27;7.70;;;19.30;86.60;;;;;;5035250;28;20104;-36
2021/06/11 05:59:06;;;;;;;10.55;8.07;;;19.30;86.90;;;;;;5035391;28;20037;-36
2021/06/11 06:01:32;;;;;;;11.05;9.05;;;19.30;87.40;;;;;;5035115;28;20053;-37
2021/06/11 06:03:57;;;;;;;10.68;8.65;;;19.30;87.20;;;;;;5035502;28;20040;-37
2021/06/11 06:06:23;;;;;;;9.25;8.02;;;19.40;86.90;;;;;;5034051;28;20333;-36
2021/06/11 06:08:49;;;;;;;9.45;8.30;;;19.40;86.90;;;;;;5034112;28;20428;-37
2021/06/11 06:11:15;;;;;;;13.38;9.15;;;19.40;86.90;;;;;;5031369;28;20383;-36
2021/06/11 06:13:41;;;;;;;14.10;8.80;;;19.40;86.70;;;;;;5037362;28;20040;-36
2021/06/11 06:16:07;;;;;;;14.32;10.13;;;19.40;87.20;;;;;;5039181;28;20079;-36
2021/06/11 06:18:32;;;;;;;13.15;10.23;;;19.40;87.20;;;;;;5038515;28;20049;-37
2021/06/11 06:20:59;;;;;;;11.50;8.40;;;19.50;87.30;;;;;;5038717;28;20033;-36
2021/06/11 06:23:25;;;;;;;13.00;9.18;;;19.50;86.70;;;;;;5038714;28;20037;-36
2021/06/11 06:25:50;;;;;;;11.27;8.23;;;19.50;87.00;;;;;;5038512;28;20132;-36
2021/06/11 06:28:16;;;;;;;9.35;7.85;;;19.50;86.80;;;;;;5038526;28;20029;-37
2021/06/11 06:30:43;;;;;;;8.63;7.22;;;19.60;86.60;;;;;;5038446;28;20064;-36
2021/06/11 06:33:08;;;;;;;10.90;7.90;;;19.60;86.90;;;;;;5038104;28;20060;-36
2021/06/11 06:35:34;;;;;;;10.13;9.02;;;19.70;86.70;;;;;;5038509;28;20042;-37
2021/06/11 06:38:00;;;;;;;13.63;11.32;;;19.80;86.40;;;;;;5038414;28;20036;-37
2021/06/11 06:40:25;;;;;;;10.50;8.40;;;19.90;86.30;;;;;;5038473;28;20072;-34
2021/06/11 06:42:51;;;;;;;11.27;7.63;;;20.00;86.00;;;;;;5038239;28;20025;-35
2021/06/11 06:45:19;;;;;;;10.20;6.47;;;20.10;85.40;;;;;;5038136;28;20026;-35
2021/06/11 06:47:47;;;;;;;11.68;7.18;;;20.00;83.50;;;;;;5038172;28;20064;-34
2021/06/11 06:50:14;;;;;;;9.32;7.90;;;20.00;84.00;;;;;;5037824;28;20021;-34
2021/06/11 06:52:40;;;;;;;9.98;8.15;;;20.00;84.10;;;;;;5038115;28;20029;-36
2021/06/11 06:55:06;;;;;;;12.68;9.23;;;20.00;84.30;;;;;;5037704;28;20017;-37
2021/06/11 06:57:32;;;;;;;9.73;8.35;;;20.00;84.40;;;;;;5037960;28;20030;-36
2021/06/11 06:59:58;;;;;;;9.18;7.65;;;20.10;84.30;;;;;;5038217;28;20032;-36
2021/06/11 07:02:24;;;;;;;10.30;7.40;;;20.20;84.10;;;;;;5037586;28;20461;-37
2021/06/11 07:04:50;;;;;;;8.73;7.13;;;20.20;83.60;;;;;;5037749;28;20139;-37
2021/06/11 07:07:16;;;;;;;8.30;6.97;;;20.30;83.60;;;;;;5038008;28;20116;-37
2021/06/11 07:09:42;;;;;;;11.85;8.70;;;20.30;83.60;;;;;;5037505;28;20022;-37
2021/06/11 07:12:09;;;;;;;8.63;7.68;;;20.30;83.60;;;;;;5038016;28;20076;-37
2021/06/11 07:14:36;;;;;;;9.98;8.43;;;20.30;82.90;;;;;;5037919;28;20052;-36
2021/06/11 07:17:05;;;;;;;10.32;7.43;;;20.30;83.00;;;;;;5037587;28;20037;-37
2021/06/11 07:19:31;;;;;;;11.25;8.20;;;20.30;83.50;;;;;;5036591;28;20045;-37
2021/06/11 07:21:57;;;;;;;10.02;7.85;;;20.30;84.10;;;;;;5037631;28;20037;-37
2021/06/11 07:24:23;;;;;;;9.63;7.18;;;20.30;84.30;;;;;;5036522;28;20091;-37
2021/06/11 07:26:48;;;;;;;11.73;8.55;;;20.40;84.30;;;;;;5037797;28;20088;-37
2021/06/11 07:29:14;;;;;;;10.07;8.13;;;20.50;84.60;;;;;;5037214;28;20037;-36
2021/06/11 07:31:40;;;;;;;9.05;7.95;;;20.50;84.00;;;;;;5037710;28;20398;-36
2021/06/11 07:34:05;;;;;;;7.45;6.35;;;20.60;84.00;;;;;;5037609;28;20025;-37
2021/06/11 07:36:31;;;;;;;12.38;7.57;;;20.70;83.50;;;;;;5037531;28;20108;-37
2021/06/11 07:38:57;;;;;;;7.68;6.68;;;20.70;83.90;;;;;;5037577;28;20033;-37
2021/06/11 07:41:23;;;;;;;8.05;7.20;;;20.80;83.50;;;;;;5037012;28;20042;-36
2021/06/11 07:43:52;;;;;;;8.80;7.07;;;20.80;82.80;;;;;;5037840;28;20045;-38
2021/06/11 07:46:18;;;;;;;8.65;6.78;;;20.90;82.70;;;;;;5037311;28;20040;-36
2021/06/11 07:48:44;;;;;;;8.07;6.93;;;21.00;82.80;;;;;;5037538;28;20417;-37
2021/06/11 07:51:10;;;;;;;6.80;6.07;;;21.00;82.50;;;;;;5037097;28;20048;-36
2021/06/11 07:53:36;;;;;;;6.20;5.60;;;21.10;82.20;;;;;;5037077;28;20036;-38
2021/06/11 07:56:02;;;;;;;8.00;6.35;;;21.20;82.40;;;;;;5037250;28;20500;-37
2021/06/11 07:58:27;;;;;;;6.40;5.70;;;21.30;81.90;;;;;;5036855;28;20302;-36
2021/06/11 08:00:53;;;;;;;6.00;5.28;;;21.40;82.50;;;;;;5036781;28;20048;-37
2021/06/11 08:03:19;;;;;;;7.65;5.55;;;21.50;81.40;;;;;;5036808;28;20057;-37
2021/06/11 08:05:45;;;;;;;7.30;4.93;;;21.60;81.30;;;;;;5036619;28;20048;-36
2021/06/11 08:08:10;;;;;;;6.55;5.40;;;21.60;80.50;;;;;;5036869;28;20400;-36
2021/06/11 08:10:37;;;;;;;5.75;4.82;;;21.70;80.70;;;;;;5036495;28;20045;-37
2021/06/11 08:13:04;;;;;;;5.85;5.25;;;21.80;79.50;;;;;;5036325;28;20025;-37
2021/06/11 08:15:29;;;;;;;8.73;7.07;;;21.80;78.60;;;;;;5036350;28;20071;-40
2021/06/11 08:17:55;;;;;;;7.15;5.90;;;21.80;78.40;;;;;;5036303;28;20049;-39
2021/06/11 08:20:21;;;;;;;6.57;4.90;;;21.90;78.10;;;;;;5036462;28;20437;-40
2021/06/11 08:22:46;;;;;;;5.45;4.57;;;21.90;78.50;;;;;;5036500;28;20061;-36
2021/06/11 08:25:13;;;;;;;4.65;4.00;;;22.00;78.20;;;;;;5036528;28;20061;-37
2021/06/11 08:27:41;;;;;;;4.70;4.20;;;22.00;77.40;;;;;;5036481;28;20044;-40
2021/06/11 08:30:10;;;;;;;5.07;3.92;;;22.00;77.00;;;;;;5051685;28;20095;-37
2021/06/11 08:32:37;;;;;;;2.97;2.70;;;22.10;76.30;;;;;;5036773;28;20224;-36
2021/06/11 08:35:05;;;;;;;5.70;4.63;;;22.10;76.10;;;;;;5036299;28;20091;-37
2021/06/11 08:37:31;;;;;;;5.00;3.95;;;22.10;76.00;;;;;;5036349;28;20421;-40
2021/06/11 08:39:57;;;;;;;4.95;3.78;;;22.10;75.30;;;;;;5035832;28;20025;-40
2021/06/11 08:42:31;;;;;;;4.30;3.13;;;22.10;75.20;;;;;;5036324;28;20037;-39
2021/06/11 08:45:06;;;;;;;3.03;2.72;;;22.10;75.20;;;;;;5036241;28;20110;-39
2021/06/11 08:47:32;;;;;;;1.83;1.63;;;22.10;75.10;;;;;;5036278;28;20022;-37
2021/06/11 08:50:00;;;;;;;1.80;1.70;;;22.10;75.00;;;;;;5035917;28;20021;-42
2021/06/11 08:52:28;;;;;;;2.97;2.40;;;22.10;75.20;;;;;;5035673;28;20033;-37
2021/06/11 08:54:54;;;;;;;2.97;2.08;;;22.00;75.50;;;;;;5035732;28;20041;-40
2021/06/11 08:57:21;;;;;;;2.00;1.80;;;22.00;75.60;;;;;;5036051;28;20083;-40
2021/06/11 08:59:48;;;;;;;2.63;2.35;;;22.00;75.30;;;;;;5035970;28;20429;-40
2021/06/11 09:02:14;;;;;;;2.83;2.45;;;22.10;75.30;;;;;;5035596;28;20119;-40
2021/06/11 09:04:50;;;;;;;5.60;1.98;;;22.10;74.50;;;;;;5035438;28;20414;-41
2021/06/11 09:07:23;;;;;;;4.93;2.72;;;22.10;74.40;;;;;;5035011;28;20041;-41
2021/06/11 09:10:00;;;;;;;3.15;2.63;;;22.10;74.80;;;;;;5035370;28;20299;-40
2021/06/11 09:12:32;;;;;;;2.33;2.13;;;22.20;74.20;;;;;;5035662;28;20029;-41
2021/06/11 09:15:07;;;;;;;3.42;2.92;;;22.20;74.10;;;;;;5034889;28;20026;-37
2021/06/11 09:17:53;;;;;;;2.20;2.00;;;22.30;73.70;;;;;;5035343;28;20299;-37
2021/06/11 09:20:41;;;;;;;3.22;2.55;;;22.40;74.10;;;;;;5026727;28;20041;-37
2021/06/11 09:23:08;;;;;;;8.15;3.22;;;22.40;74.10;;;;;;5034956;28;20083;-37
2021/06/11 09:25:35;;;;;;;3.08;2.40;;;22.40;74.10;;;;;;5035578;28;20357;-37
2021/06/11 09:28:06;;;;;;;9.68;2.80;;;22.40;73.40;;;;;;5035212;28;20037;-34
2021/06/11 09:30:54;;;;;;;3.03;2.30;;;22.40;73.10;;;;;;5035300;28;20029;-38
2021/06/11 09:33:22;;;;;;;3.92;3.15;;;22.40;73.00;;;;;;5035345;28;20056;-35
2021/06/11 09:35:54;;;;;;;6.03;3.30;;;22.40;73.10;;;;;;5035308;28;20060;-36
2021/06/11 09:38:30;;;;;;;3.97;3.25;;;22.40;73.50;;;;;;5035069;28;20061;-37
2021/06/11 09:40:58;;;;;;;3.65;3.25;;;22.50;73.50;;;;;;5034883;28;20116;-40
2021/06/11 09:43:29;;;;;;;4.53;3.47;;;22.50;73.30;;;;;;5035005;28;20421;-39
2021/06/11 09:46:14;;;;;;;4.25;3.75;;;22.60;72.90;;;;;;5034991;28;20409;-37
2021/06/11 09:48:46;;;;;;;5.60;3.10;;;22.70;73.10;;;;;;5050227;28;20100;-37
2021/06/11 09:51:23;;;;;;;3.85;3.33;;;22.80;73.00;;;;;;5035034;28;20112;-37
2021/06/11 09:53:49;;;;;;;4.05;3.42;;;22.80;72.60;;;;;;5034988;28;20104;-37
2021/06/11 09:56:26;;;;;;;7.75;3.35;;;22.90;73.10;;;;;;5035224;28;20037;-40
2021/06/11 09:58:54;;;;;;;4.97;3.47;;;22.90;72.10;;;;;;5035189;28;20050;-36
2021/06/11 10:01:20;;;;;;;3.92;3.53;;;23.00;72.30;;;;;;5034622;28;20040;-40
2021/06/11 10:03:48;;;;;;;4.00;3.20;;;23.00;71.30;;;;;;5035031;28;20037;-40
2021/06/11 10:06:16;;;;;;;4.47;3.38;;;23.10;71.60;;;;;;5034079;28;20065;-40
2021/06/11 10:08:43;;;;;;;4.78;3.03;;;23.10;71.10;;;;;;5035241;28;20033;-40
2021/06/11 10:11:11;;;;;;;2.78;2.40;;;23.10;71.10;;;;;;5035138;28;20037;-41
2021/06/11 10:13:37;;;;;;;2.92;2.60;;;23.20;70.40;;;;;;5034732;28;20026;-41
2021/06/11 10:16:06;;;;;;;4.95;2.47;;;23.20;69.70;;;;;;5035236;28;20064;-40
2021/06/11 10:18:32;;;;;;;2.70;2.50;;;23.30;69.70;;;;;;5034744;28;20073;-40
2021/06/11 10:20:58;;;;;;;3.30;2.50;;;23.30;69.60;;;;;;5035064;28;20333;-40
2021/06/11 10:23:26;;;;;;;10.02;3.58;;;23.30;69.10;;;;;;5034797;28;20433;-37
2021/06/11 10:25:56;;;;;;;3.35;2.60;;;23.30;69.20;;;;;;5035035;28;20034;-36
2021/06/11 10:28:36;;;;;;;2.38;2.10;;;23.30;69.00;;;;;;5034711;28;20321;-36
2021/06/11 10:31:04;;;;;;;5.82;2.78;;;23.50;69.20;;;;;;5034292;28;20036;-37
2021/06/11 10:33:59;;;;;;;2.53;2.33;;;23.50;68.50;;;;;;5035226;28;20068;-41
2021/06/11 10:36:25;;;;;;;2.00;1.90;;;23.50;67.30;;;;;;5034734;28;20033;-37
2021/06/11 10:38:51;;;;;;;2.55;2.30;;;23.50;67.10;;;;;;5035449;28;20032;-37
2021/06/11 10:41:17;;;;;;;2.58;2.00;;;23.50;66.70;;;;;;5035012;28;20041;-37
2021/06/11 10:43:43;;;;;;;3.80;2.17;;;23.50;66.90;;;;;;5035079;28;20471;-37
2021/06/11 10:46:31;;;;;;;2.90;2.25;;;23.50;67.40;;;;;;5035279;28;20120;-37
2021/06/11 10:48:56;;;;;;;2.88;2.30;;;23.50;66.60;;;;;;5034602;28;20031;-39
2021/06/11 10:51:44;;;;;;;2.30;2.10;;;23.50;67.30;;;;;;5034785;28;20112;-37
2021/06/11 10:54:19;;;;;;;3.47;2.70;;;23.50;66.70;;;;;;5034669;28;20410;-37
2021/06/11 10:56:57;;;;;;;5.18;2.80;;;23.50;67.20;;;;;;5034618;28;20354;-39
2021/06/11 10:59:47;;;;;;;6.13;2.60;;;23.60;67.20;;;;;;5035161;28;20021;-38
2021/06/11 11:02:15;;;;;;;2.35;2.08;;;23.60;67.70;;;;;;5038271;28;20394;-41
2021/06/11 11:04:44;;;;;;;2.85;2.50;;;23.70;67.60;;;;;;5038125;28;20033;-37
2021/06/11 11:07:28;;;;;;;2.67;2.30;;;23.80;67.30;;;;;;5038045;28;20087;-40
2021/06/11 11:10:04;;;;;;;3.17;2.80;;;23.80;66.80;;;;;;5038339;28;20029;-41
2021/06/11 11:12:56;;;;;;;3.50;2.85;;;23.80;66.70;;;;;;5038016;28;20302;-36
2021/06/11 11:15:41;;;;;;;3.83;2.25;;;23.80;66.80;;;;;;5037797;28;20437;-37
2021/06/11 11:18:12;;;;;;;6.22;2.90;;;23.90;66.60;;;;;;5037155;28;20054;-37
2021/06/11 11:20:39;;;;;;;2.95;2.53;;;23.90;65.70;;;;;;5037915;28;20406;-37
2021/06/11 11:23:08;;;;;;;2.50;2.30;;;24.00;65.70;;;;;;5037190;28;20044;-41
2021/06/11 11:25:34;;;;;;;2.78;2.13;;;24.10;65.80;;;;;;5037861;28;20321;-37
2021/06/11 11:28:01;;;;;;;2.72;2.30;;;24.30;65.80;;;;;;5037409;28;20036;-37
2021/06/11 11:30:28;;;;;;;2.50;2.30;;;24.30;65.20;;;;;;5037635;28;20029;-37
2021/06/11 11:32:55;;;;;;;5.22;3.25;;;24.50;65.20;;;;;;5052775;28;20087;-37
2021/06/11 11:35:22;;;;;;;2.83;2.50;;;24.60;64.00;;;;;;5033228;28;20024;-39
2021/06/11 11:37:52;;;;;;;4.43;2.30;;;24.80;64.20;;;;;;5037252;28;20034;-37
2021/06/11 11:40:18;;;;;;;3.92;2.38;;;25.00;62.90;;;;;;5037243;28;20040;-37
2021/06/11 11:42:44;;;;;;;3.45;2.60;;;25.10;62.10;;;;;;5037133;28;20029;-40
2021/06/11 11:45:11;;;;;;;2.60;2.40;;;25.20;61.50;;;;;;5037556;28;20086;-39
2021/06/11 11:47:37;;;;;;;3.00;2.40;;;25.20;62.00;;;;;;5036445;28;20048;-40
2021/06/11 11:50:04;;;;;;;2.95;2.65;;;25.30;62.00;;;;;;5037243;28;20017;-40
2021/06/11 11:52:32;;;;;;;4.85;2.60;;;25.40;62.00;;;;;;5037176;28;20128;-40
2021/06/11 11:54:59;;;;;;;2.97;2.67;;;25.50;61.90;;;;;;5036987;28;20325;-38
2021/06/11 11:57:24;;;;;;;5.57;2.72;;;25.60;62.20;;;;;;5036175;28;20064;-38
2021/06/11 11:59:50;;;;;;;7.38;4.50;;;25.70;61.80;;;;;;5036429;28;20026;-39
2021/06/11 12:02:15;;;;;;;3.45;2.30;;;25.80;61.00;;;;;;5036566;28;20088;-38
2021/06/11 12:04:41;;;;;;;5.03;2.90;;;25.80;60.70;;;;;;5036479;28;20029;-39
2021/06/11 12:07:07;;;;;;;3.03;2.72;;;25.80;60.50;;;;;;5036689;28;20054;-38
2021/06/11 12:09:33;;;;;;;3.42;2.40;;;25.80;60.00;;;;;;5036931;28;20033;-41
2021/06/11 12:11:58;;;;;;;2.65;2.45;;;25.80;60.00;;;;;;5035916;28;20476;-41
2021/06/11 12:14:24;;;;;;;3.50;2.67;;;25.70;60.10;;;;;;5036080;28;20034;-39
2021/06/11 12:16:53;;;;;;;5.65;2.78;;;25.70;60.30;;;;;;5051506;28;20033;-39
2021/06/11 12:19:19;;;;;;;5.03;3.00;;;25.70;59.80;;;;;;5036368;28;20044;-38
2021/06/11 12:21:45;;;;;;;5.20;3.88;;;25.60;59.80;;;;;;5051513;28;20037;-38
2021/06/11 12:24:10;;;;;;;4.07;3.30;;;25.50;59.70;;;;;;5036408;28;20480;-41
2021/06/11 12:26:36;;;;;;;3.45;3.03;;;25.50;59.50;;;;;;5036336;28;20047;-38
2021/06/11 12:29:03;;;;;;;3.72;2.70;;;25.40;60.00;;;;;;5036237;28;20025;-42
2021/06/11 12:31:30;;;;;;;3.05;2.50;;;25.40;60.20;;;;;;5036106;28;20033;-41
2021/06/11 12:33:56;;;;;;;5.38;2.90;;;25.40;60.20;;;;;;5036770;28;20105;-38
2021/06/11 12:36:22;;;;;;;3.00;2.70;;;25.40;59.60;;;;;;5035225;28;20378;-41
2021/06/11 12:38:48;;;;;;;3.53;2.92;;;25.30;59.40;;;;;;5036117;28;20033;-41
2021/06/11 12:41:15;;;;;;;3.45;2.53;;;25.20;59.60;;;;;;5051510;28;20043;-38
2021/06/11 12:46:26;;;;;;;4.80;2.90;;;25.00;60.20;;;;;;5035752;28;20105;-38
2021/06/11 12:48:52;;;;;;;3.95;2.92;;;24.90;61.00;;;;;;5036086;28;20041;-38